PWSweather.com
Personal Weather Stations
Station Observations
270882
Flassian, LimouxFR 11300

FlassianLimouxFR 11300

Lat: 43.071798, Lon: 2.217292

Elevation: 165

Station Type: Oregon WMR 200

http://www.meteolimoux.fr

High Low Average
Temperature 70.9°F21.6°C 50.4°F10.2°C 60.7°F15.9°C
Dew Point 60.8°F16.0°C 46.4°F8.0°C 54.2°F12.3°C
Winds 12.1 mph 19.5 kmh Calm Calm 5.0 mph ENE8.0 kmh ENE
Wind Gusts 20.1 mph32.3 kmh -- 8.0 mph12.9 kmh
Humidity 90% 61% 80%
Pressure 30.37 in1028.4 mb 30.25 in1024.4 mb -
Precipitation 0.00 in0.0 mm - -
Hour Temp Dew Point Humidity Winds Wind Gusts Pressure Precip Precip Rate Daily Precip Total
12:02 AM 53.2°F11.8°C 47.3°F8.5°C 80% Calm Calm -- 30.31 in1026.4 mb - 0.00 in0.0 mm 0.00 in0.0 mm
12:07 AM 53.1°F11.7°C 46.8°F8.2°C 79% Calm Calm -- 30.31 in1026.4 mb - 0.00 in0.0 mm 0.00 in0.0 mm
12:12 AM 52.9°F11.6°C 46.6°F8.1°C 79% Calm Calm -- 30.31 in1026.4 mb - 0.00 in0.0 mm 0.00 in0.0 mm
12:17 AM 52.7°F11.5°C 46.4°F8.0°C 79% Calm Calm -- 30.31 in1026.4 mb - 0.00 in0.0 mm 0.00 in0.0 mm
12:22 AM 52.7°F11.5°C 46.8°F8.2°C 80% Calm Calm -- 30.31 in1026.4 mb - 0.00 in0.0 mm 0.00 in0.0 mm
12:27 AM 52.7°F11.5°C 46.8°F8.2°C 80% Calm Calm -- 30.31 in1026.4 mb - 0.00 in0.0 mm 0.00 in0.0 mm
12:32 AM 52.7°F11.5°C 46.8°F8.2°C 80% Calm Calm -- 30.31 in1026.4 mb - 0.00 in0.0 mm 0.00 in0.0 mm
12:37 AM 52.7°F11.5°C 47.1°F8.4°C 81% Calm Calm -- 30.31 in1026.4 mb - 0.00 in0.0 mm 0.00 in0.0 mm
12:42 AM 52.9°F11.6°C 47.3°F8.5°C 81% Calm Calm -- 30.31 in1026.4 mb - 0.00 in0.0 mm 0.00 in0.0 mm
12:47 AM 53.1°F11.7°C 47.5°F8.6°C 81% Calm Calm -- 30.31 in1026.4 mb - 0.00 in0.0 mm 0.00 in0.0 mm
12:52 AM 53.2°F11.8°C 47.8°F8.8°C 82% Calm Calm -- 30.31 in1026.4 mb - 0.00 in0.0 mm 0.00 in0.0 mm
12:57 AM 53.2°F11.8°C 47.8°F8.8°C 82% Calm Calm -- 30.31 in1026.4 mb - 0.00 in0.0 mm 0.00 in0.0 mm
01:02 AM 53.1°F11.7°C 47.7°F8.7°C 82% Calm Calm -- 30.31 in1026.4 mb - 0.00 in0.0 mm 0.00 in0.0 mm
01:07 AM 53.2°F11.8°C 47.8°F8.8°C 82% Calm Calm -- 30.31 in1026.4 mb - 0.00 in0.0 mm 0.00 in0.0 mm
01:12 AM 53.2°F11.8°C 48.2°F9.0°C 83% Calm Calm -- 30.31 in1026.4 mb - 0.00 in0.0 mm 0.00 in0.0 mm
01:17 AM 53.2°F11.8°C 48.2°F9.0°C 83% Calm Calm -- 30.31 in1026.4 mb - 0.00 in0.0 mm 0.00 in0.0 mm
01:22 AM 53.4°F11.9°C 48.4°F9.1°C 83% Calm Calm -- 30.31 in1026.4 mb - 0.00 in0.0 mm 0.00 in0.0 mm
01:27 AM 53.4°F11.9°C 48.4°F9.1°C 83% Calm Calm -- 30.31 in1026.4 mb - 0.00 in0.0 mm 0.00 in0.0 mm
01:32 AM 53.6°F12.0°C 48.6°F9.2°C 83% Calm Calm -- 30.31 in1026.4 mb - 0.00 in0.0 mm 0.00 in0.0 mm
01:37 AM 53.6°F12.0°C 48.6°F9.2°C 83% 1.3 mph S2.1 kmh S 4.0 mph6.4 kmh 30.31 in1026.4 mb - 0.00 in0.0 mm 0.00 in0.0 mm
01:42 AM 53.6°F12.0°C 48.6°F9.2°C 83% 1.3 mph SSE2.1 kmh SSE 2.9 mph4.7 kmh 30.31 in1026.4 mb - 0.00 in0.0 mm 0.00 in0.0 mm
01:47 AM 53.6°F12.0°C 48.6°F9.2°C 83% 1.8 mph S2.9 kmh S 4.0 mph6.4 kmh 30.31 in1026.4 mb - 0.00 in0.0 mm 0.00 in0.0 mm
01:52 AM 53.8°F12.1°C 48.7°F9.3°C 83% 2.0 mph SSW3.2 kmh SSW 2.0 mph3.2 kmh 30.31 in1026.4 mb - 0.00 in0.0 mm 0.00 in0.0 mm
01:57 AM 53.6°F12.0°C 48.6°F9.2°C 83% 1.3 mph S2.1 kmh S 4.3 mph6.9 kmh 30.31 in1026.4 mb - 0.00 in0.0 mm 0.00 in0.0 mm
02:02 AM 53.6°F12.0°C 48.6°F9.2°C 83% 2.2 mph SW3.5 kmh SW 3.1 mph5.0 kmh 30.31 in1026.4 mb - 0.00 in0.0 mm 0.00 in0.0 mm
02:07 AM 53.4°F11.9°C 48.7°F9.3°C 84% Calm Calm 1.3 mph2.1 kmh 30.31 in1026.4 mb - 0.00 in0.0 mm 0.00 in0.0 mm
02:12 AM 53.4°F11.9°C 48.7°F9.3°C 84% 1.3 mph SW2.1 kmh SW 4.9 mph7.9 kmh 30.31 in1026.4 mb - 0.00 in0.0 mm 0.00 in0.0 mm
02:17 AM 53.4°F11.9°C 48.7°F9.3°C 84% 2.5 mph SW4.0 kmh SW 4.7 mph7.6 kmh 30.31 in1026.4 mb - 0.00 in0.0 mm 0.00 in0.0 mm
02:22 AM 53.2°F11.8°C 48.6°F9.2°C 84% 1.6 mph S2.6 kmh S 4.3 mph6.9 kmh 30.31 in1026.4 mb - 0.00 in0.0 mm 0.00 in0.0 mm
02:27 AM 53.2°F11.8°C 48.6°F9.2°C 84% 1.6 mph S2.6 kmh S 4.0 mph6.4 kmh 30.31 in1026.4 mb - 0.00 in0.0 mm 0.00 in0.0 mm
02:32 AM 53.2°F11.8°C 48.6°F9.2°C 84% 1.3 mph SSW2.1 kmh SSW 3.1 mph5.0 kmh 30.31 in1026.4 mb - 0.00 in0.0 mm 0.00 in0.0 mm
02:37 AM 53.2°F11.8°C 48.6°F9.2°C 84% 0.2 mph S0.3 kmh S 1.8 mph2.9 kmh 30.31 in1026.4 mb - 0.00 in0.0 mm 0.00 in0.0 mm
02:42 AM 53.2°F11.8°C 48.6°F9.2°C 84% Calm Calm -- 30.31 in1026.4 mb - 0.00 in0.0 mm 0.00 in0.0 mm
02:47 AM 53.2°F11.8°C 48.6°F9.2°C 84% 0.7 mph SSW1.1 kmh SSW 3.1 mph5.0 kmh 30.31 in1026.4 mb - 0.00 in0.0 mm 0.00 in0.0 mm
02:52 AM 53.2°F11.8°C 48.6°F9.2°C 84% 1.6 mph SSW2.6 kmh SSW 3.6 mph5.8 kmh 30.31 in1026.4 mb - 0.00 in0.0 mm 0.00 in0.0 mm
02:57 AM 53.1°F11.7°C 48.4°F9.1°C 84% 2.0 mph SSW3.2 kmh SSW 3.8 mph6.1 kmh 30.31 in1026.4 mb - 0.00 in0.0 mm 0.00 in0.0 mm
03:02 AM 53.1°F11.7°C 48.4°F9.1°C 84% 2.5 mph SW4.0 kmh SW 4.3 mph6.9 kmh 30.31 in1026.4 mb - 0.00 in0.0 mm 0.00 in0.0 mm
03:07 AM 52.9°F11.6°C 48.6°F9.2°C 85% 2.0 mph S3.2 kmh S 2.0 mph3.2 kmh 30.31 in1026.4 mb - 0.00 in0.0 mm 0.00 in0.0 mm
03:12 AM 52.9°F11.6°C 48.6°F9.2°C 85% 1.3 mph SSW2.1 kmh SSW 4.0 mph6.4 kmh 30.31 in1026.4 mb - 0.00 in0.0 mm 0.00 in0.0 mm
03:17 AM 52.7°F11.5°C 48.4°F9.1°C 85% 1.3 mph SW2.1 kmh SW 4.9 mph7.9 kmh 30.31 in1026.4 mb - 0.00 in0.0 mm 0.00 in0.0 mm
03:22 AM 52.7°F11.5°C 48.4°F9.1°C 85% 0.7 mph SSW1.1 kmh SSW 3.6 mph5.8 kmh 30.31 in1026.4 mb - 0.00 in0.0 mm 0.00 in0.0 mm
03:27 AM 52.7°F11.5°C 48.6°F9.2°C 86% 2.0 mph SSW3.2 kmh SSW 4.3 mph6.9 kmh 30.31 in1026.4 mb - 0.00 in0.0 mm 0.00 in0.0 mm
03:32 AM 52.5°F11.4°C 48.4°F9.1°C 86% 2.0 mph SSW3.2 kmh SSW 2.0 mph3.2 kmh 30.31 in1026.4 mb - 0.00 in0.0 mm 0.00 in0.0 mm
03:37 AM 52.5°F11.4°C 48.4°F9.1°C 86% 1.3 mph SW2.1 kmh SW 3.8 mph6.1 kmh 30.31 in1026.4 mb - 0.00 in0.0 mm 0.00 in0.0 mm
03:42 AM 52.5°F11.4°C 48.4°F9.1°C 86% 0.2 mph SW0.3 kmh SW 2.0 mph3.2 kmh 30.31 in1026.4 mb - 0.00 in0.0 mm 0.00 in0.0 mm
03:47 AM 52.5°F11.4°C 48.4°F9.1°C 86% Calm Calm 0.4 mph0.6 kmh 30.31 in1026.4 mb - 0.00 in0.0 mm 0.00 in0.0 mm
03:52 AM 52.7°F11.5°C 48.9°F9.4°C 87% Calm Calm -- 30.31 in1026.4 mb - 0.00 in0.0 mm 0.00 in0.0 mm
03:57 AM 52.7°F11.5°C 48.9°F9.4°C 87% Calm Calm -- 30.31 in1026.4 mb - 0.00 in0.0 mm 0.00 in0.0 mm
04:02 AM 52.7°F11.5°C 48.9°F9.4°C 87% Calm Calm -- 30.31 in1026.4 mb - 0.00 in0.0 mm 0.00 in0.0 mm
04:07 AM 52.5°F11.4°C 48.7°F9.3°C 87% Calm Calm -- 30.31 in1026.4 mb - 0.00 in0.0 mm 0.00 in0.0 mm
04:12 AM 52.5°F11.4°C 48.7°F9.3°C 87% Calm Calm -- 30.31 in1026.4 mb - 0.00 in0.0 mm 0.00 in0.0 mm
04:17 AM 52.3°F11.3°C 48.9°F9.4°C 88% Calm Calm -- 30.31 in1026.4 mb - 0.00 in0.0 mm 0.00 in0.0 mm
04:22 AM 52.5°F11.4°C 49.1°F9.5°C 88% Calm Calm -- 30.31 in1026.4 mb - 0.00 in0.0 mm 0.00 in0.0 mm
04:27 AM 52.5°F11.4°C 49.1°F9.5°C 88% Calm Calm -- 30.31 in1026.4 mb - 0.00 in0.0 mm 0.00 in0.0 mm
04:32 AM 52.3°F11.3°C 48.9°F9.4°C 88% Calm Calm -- 30.31 in1026.4 mb - 0.00 in0.0 mm 0.00 in0.0 mm
04:37 AM 52.3°F11.3°C 48.9°F9.4°C 88% Calm Calm -- 30.31 in1026.4 mb - 0.00 in0.0 mm 0.00 in0.0 mm
04:42 AM 52.3°F11.3°C 48.9°F9.4°C 88% Calm Calm -- 30.31 in1026.4 mb - 0.00 in0.0 mm 0.00 in0.0 mm
04:47 AM 52.3°F11.3°C 48.9°F9.4°C 88% Calm Calm -- 30.31 in1026.4 mb - 0.00 in0.0 mm 0.00 in0.0 mm
04:52 AM 52.3°F11.3°C 48.9°F9.4°C 88% Calm Calm -- 30.31 in1026.4 mb - 0.00 in0.0 mm 0.00 in0.0 mm
04:57 AM 52.3°F11.3°C 49.3°F9.6°C 89% Calm Calm -- 30.31 in1026.4 mb - 0.00 in0.0 mm 0.00 in0.0 mm
05:02 AM 52.3°F11.3°C 49.3°F9.6°C 89% Calm Calm -- 30.31 in1026.4 mb - 0.00 in0.0 mm 0.00 in0.0 mm
05:07 AM 52.3°F11.3°C 49.3°F9.6°C 89% Calm Calm -- 30.31 in1026.4 mb - 0.00 in0.0 mm 0.00 in0.0 mm
05:12 AM 52.3°F11.3°C 49.3°F9.6°C 89% Calm Calm -- 30.31 in1026.4 mb - 0.00 in0.0 mm 0.00 in0.0 mm
05:17 AM 52.3°F11.3°C 49.3°F9.6°C 89% Calm Calm -- 30.31 in1026.4 mb - 0.00 in0.0 mm 0.00 in0.0 mm
05:22 AM 52.3°F11.3°C 49.3°F9.6°C 89% Calm Calm -- 30.31 in1026.4 mb - 0.00 in0.0 mm 0.00 in0.0 mm
05:27 AM 52.3°F11.3°C 49.3°F9.6°C 89% Calm Calm -- 30.31 in1026.4 mb - 0.00 in0.0 mm 0.00 in0.0 mm
05:32 AM 52.5°F11.4°C 49.5°F9.7°C 89% Calm Calm -- 30.31 in1026.4 mb - 0.00 in0.0 mm 0.00 in0.0 mm
05:37 AM 52.5°F11.4°C 49.5°F9.7°C 89% Calm Calm -- 30.31 in1026.4 mb - 0.00 in0.0 mm 0.00 in0.0 mm
05:42 AM 52.5°F11.4°C 49.5°F9.7°C 89% Calm Calm -- 30.31 in1026.4 mb - 0.00 in0.0 mm 0.00 in0.0 mm
05:47 AM 52.3°F11.3°C 49.3°F9.6°C 89% Calm Calm -- 30.31 in1026.4 mb - 0.00 in0.0 mm 0.00 in0.0 mm
05:52 AM 52.3°F11.3°C 49.3°F9.6°C 89% Calm Calm -- 30.31 in1026.4 mb - 0.00 in0.0 mm 0.00 in0.0 mm
05:57 AM 52.3°F11.3°C 49.3°F9.6°C 89% Calm Calm -- 30.31 in1026.4 mb - 0.00 in0.0 mm 0.00 in0.0 mm
06:02 AM 52.2°F11.2°C 49.1°F9.5°C 89% 0.9 mph SSW1.4 kmh SSW 5.4 mph8.7 kmh 30.31 in1026.4 mb - 0.00 in0.0 mm 0.00 in0.0 mm
06:07 AM 52.2°F11.2°C 49.1°F9.5°C 89% 2.0 mph S3.2 kmh S 4.3 mph6.9 kmh 30.31 in1026.4 mb - 0.00 in0.0 mm 0.00 in0.0 mm
06:12 AM 52.2°F11.2°C 49.1°F9.5°C 89% 0.9 mph S1.4 kmh S 3.8 mph6.1 kmh 30.31 in1026.4 mb - 0.00 in0.0 mm 0.00 in0.0 mm
06:17 AM 52.0°F11.1°C 48.9°F9.4°C 89% Calm Calm -- 30.31 in1026.4 mb - 0.00 in0.0 mm 0.00 in0.0 mm
06:22 AM 52.0°F11.1°C 48.9°F9.4°C 89% Calm Calm -- 30.31 in1026.4 mb - 0.00 in0.0 mm 0.00 in0.0 mm
06:27 AM 51.8°F11.0°C 48.7°F9.3°C 89% Calm Calm -- 30.31 in1026.4 mb - 0.00 in0.0 mm 0.00 in0.0 mm
06:32 AM 51.8°F11.0°C 48.7°F9.3°C 89% 0.7 mph S1.1 kmh S 2.2 mph3.5 kmh 30.31 in1026.4 mb - 0.00 in0.0 mm 0.00 in0.0 mm
06:37 AM 51.8°F11.0°C 48.9°F9.4°C 90% 0.4 mph WSW0.6 kmh WSW 0.4 mph0.6 kmh 30.31 in1026.4 mb - 0.00 in0.0 mm 0.00 in0.0 mm
06:42 AM 51.6°F10.9°C 48.7°F9.3°C 90% 2.7 mph WSW4.3 kmh WSW 4.7 mph7.6 kmh 30.31 in1026.4 mb - 0.00 in0.0 mm 0.00 in0.0 mm
06:47 AM 51.4°F10.8°C 48.4°F9.1°C 89% 3.1 mph SSW5.0 kmh SSW 5.6 mph9.0 kmh 30.31 in1026.4 mb - 0.00 in0.0 mm 0.00 in0.0 mm
06:52 AM 51.3°F10.7°C 48.2°F9.0°C 89% 1.3 mph SW2.1 kmh SW 4.7 mph7.6 kmh 30.31 in1026.4 mb - 0.00 in0.0 mm 0.00 in0.0 mm
06:57 AM 51.3°F10.7°C 48.4°F9.1°C 90% 0.4 mph SW0.6 kmh SW 2.9 mph4.7 kmh 30.31 in1026.4 mb - 0.00 in0.0 mm 0.00 in0.0 mm
07:02 AM 51.1°F10.6°C 48.2°F9.0°C 90% 2.7 mph WSW4.3 kmh WSW 5.6 mph9.0 kmh 30.31 in1026.4 mb - 0.00 in0.0 mm 0.00 in0.0 mm
07:07 AM 51.1°F10.6°C 48.2°F9.0°C 90% 1.3 mph SW2.1 kmh SW 3.6 mph5.8 kmh 30.31 in1026.4 mb - 0.00 in0.0 mm 0.00 in0.0 mm
07:12 AM 51.1°F10.6°C 48.2°F9.0°C 90% 2.2 mph SW3.5 kmh SW 4.7 mph7.6 kmh 30.31 in1026.4 mb - 0.00 in0.0 mm 0.00 in0.0 mm
07:17 AM 50.9°F10.5°C 48.0°F8.9°C 90% 1.1 mph WSW1.8 kmh WSW 3.6 mph5.8 kmh 30.31 in1026.4 mb - 0.00 in0.0 mm 0.00 in0.0 mm
07:22 AM 50.9°F10.5°C 48.0°F8.9°C 90% Calm Calm 2.0 mph3.2 kmh 30.31 in1026.4 mb - 0.00 in0.0 mm 0.00 in0.0 mm
07:27 AM 50.9°F10.5°C 48.0°F8.9°C 90% 1.3 mph SW2.1 kmh SW 3.1 mph5.0 kmh 30.31 in1026.4 mb - 0.00 in0.0 mm 0.00 in0.0 mm
07:32 AM 50.7°F10.4°C 47.8°F8.8°C 90% 1.1 mph SW1.8 kmh SW 5.1 mph8.2 kmh 30.31 in1026.4 mb - 0.00 in0.0 mm 0.00 in0.0 mm
07:37 AM 50.5°F10.3°C 47.7°F8.7°C 90% 2.9 mph SW4.7 kmh SW 4.9 mph7.9 kmh 30.31 in1026.4 mb - 0.00 in0.0 mm 0.00 in0.0 mm
07:42 AM 50.4°F10.2°C 47.5°F8.6°C 90% 2.5 mph SW4.0 kmh SW 4.7 mph7.6 kmh 30.31 in1026.4 mb - 0.00 in0.0 mm 0.00 in0.0 mm
07:47 AM 50.5°F10.3°C 47.7°F8.7°C 90% 2.9 mph SW4.7 kmh SW 6.3 mph10.1 kmh 30.31 in1026.4 mb - 0.00 in0.0 mm 0.00 in0.0 mm
07:52 AM 50.4°F10.2°C 47.5°F8.6°C 90% 2.7 mph SW4.3 kmh SW 5.4 mph8.7 kmh 30.31 in1026.4 mb - 0.00 in0.0 mm 0.00 in0.0 mm
07:57 AM 50.4°F10.2°C 47.5°F8.6°C 90% 2.9 mph SW4.7 kmh SW 2.9 mph4.7 kmh 30.34 in1027.4 mb - 0.00 in0.0 mm 0.00 in0.0 mm
08:02 AM 50.5°F10.3°C 47.7°F8.7°C 90% 0.7 mph SW1.1 kmh SW 3.6 mph5.8 kmh 30.34 in1027.4 mb - 0.00 in0.0 mm 0.00 in0.0 mm
08:07 AM 50.5°F10.3°C 47.7°F8.7°C 90% 1.1 mph WSW1.8 kmh WSW 3.8 mph6.1 kmh 30.34 in1027.4 mb - 0.00 in0.0 mm 0.00 in0.0 mm
08:12 AM 50.7°F10.4°C 47.8°F8.8°C 90% 1.3 mph SW2.1 kmh SW 4.9 mph7.9 kmh 30.34 in1027.4 mb - 0.00 in0.0 mm 0.00 in0.0 mm
08:17 AM 50.9°F10.5°C 48.0°F8.9°C 90% 2.9 mph SW4.7 kmh SW 5.6 mph9.0 kmh 30.34 in1027.4 mb - 0.00 in0.0 mm 0.00 in0.0 mm
08:22 AM 51.1°F10.6°C 48.2°F9.0°C 90% 2.0 mph SW3.2 kmh SW 3.6 mph5.8 kmh 30.34 in1027.4 mb - 0.00 in0.0 mm 0.00 in0.0 mm
08:27 AM 51.3°F10.7°C 48.4°F9.1°C 90% 2.5 mph SSW4.0 kmh SSW 4.3 mph6.9 kmh 30.34 in1027.4 mb - 0.00 in0.0 mm 0.00 in0.0 mm
08:32 AM 51.4°F10.8°C 48.6°F9.2°C 90% 2.5 mph SW4.0 kmh SW 4.5 mph7.2 kmh 30.34 in1027.4 mb - 0.00 in0.0 mm 0.00 in0.0 mm
08:37 AM 51.6°F10.9°C 48.7°F9.3°C 90% 1.3 mph SSW2.1 kmh SSW 2.7 mph4.3 kmh 30.34 in1027.4 mb - 0.00 in0.0 mm 0.00 in0.0 mm
08:42 AM 52.0°F11.1°C 49.1°F9.5°C 90% 3.8 mph S6.1 kmh S 6.0 mph9.7 kmh 30.34 in1027.4 mb - 0.00 in0.0 mm 0.00 in0.0 mm
08:47 AM 52.3°F11.3°C 49.5°F9.7°C 90% 0.7 mph S1.1 kmh S 4.0 mph6.4 kmh 30.34 in1027.4 mb - 0.00 in0.0 mm 0.00 in0.0 mm
08:52 AM 52.7°F11.5°C 49.8°F9.9°C 90% 2.0 mph SW3.2 kmh SW 3.8 mph6.1 kmh 30.34 in1027.4 mb - 0.00 in0.0 mm 0.00 in0.0 mm
08:57 AM 53.1°F11.7°C 50.2°F10.1°C 90% 0.9 mph SW1.4 kmh SW 2.2 mph3.5 kmh 30.34 in1027.4 mb - 0.00 in0.0 mm 0.00 in0.0 mm
09:02 AM 54.0°F12.2°C 51.1°F10.6°C 90% Calm Calm -- 30.34 in1027.4 mb - 0.00 in0.0 mm 0.00 in0.0 mm
09:07 AM 54.7°F12.6°C 51.8°F11.0°C 90% Calm Calm -- 30.34 in1027.4 mb - 0.00 in0.0 mm 0.00 in0.0 mm
09:12 AM 55.4°F13.0°C 52.2°F11.2°C 89% Calm Calm -- 30.34 in1027.4 mb - 0.00 in0.0 mm 0.00 in0.0 mm
09:17 AM 55.9°F13.3°C 52.7°F11.5°C 89% Calm Calm -- 30.34 in1027.4 mb - 0.00 in0.0 mm 0.00 in0.0 mm
09:22 AM 57.0°F13.9°C 53.4°F11.9°C 88% Calm Calm -- 30.34 in1027.4 mb - 0.00 in0.0 mm 0.00 in0.0 mm
09:27 AM 57.7°F14.3°C 54.0°F12.2°C 87% Calm Calm -- 30.37 in1028.4 mb - 0.00 in0.0 mm 0.00 in0.0 mm
09:32 AM 58.1°F14.5°C 53.6°F12.0°C 85% Calm Calm -- 30.37 in1028.4 mb - 0.00 in0.0 mm 0.00 in0.0 mm
09:37 AM 58.5°F14.7°C 53.6°F12.0°C 84% Calm Calm -- 30.37 in1028.4 mb - 0.00 in0.0 mm 0.00 in0.0 mm
09:42 AM 59.0°F15.0°C 53.8°F12.1°C 83% Calm Calm -- 30.34 in1027.4 mb - 0.00 in0.0 mm 0.00 in0.0 mm
09:47 AM 59.4°F15.2°C 53.6°F12.0°C 81% Calm Calm -- 30.34 in1027.4 mb - 0.00 in0.0 mm 0.00 in0.0 mm
09:52 AM 59.7°F15.4°C 54.0°F12.2°C 81% Calm Calm -- 30.34 in1027.4 mb - 0.00 in0.0 mm 0.00 in0.0 mm
09:57 AM 60.3°F15.7°C 53.8°F12.1°C 79% Calm Calm -- 30.34 in1027.4 mb - 0.00 in0.0 mm 0.00 in0.0 mm
10:02 AM 60.8°F16.0°C 54.7°F12.6°C 80% Calm Calm -- 30.34 in1027.4 mb - 0.00 in0.0 mm 0.00 in0.0 mm
10:07 AM 61.3°F16.3°C 55.0°F12.8°C 80% Calm Calm -- 30.34 in1027.4 mb - 0.00 in0.0 mm 0.00 in0.0 mm
10:12 AM 62.2°F16.8°C 55.6°F13.1°C 79% 1.1 mph SW1.8 kmh SW 4.0 mph6.4 kmh 30.34 in1027.4 mb - 0.00 in0.0 mm 0.00 in0.0 mm
10:17 AM 63.1°F17.3°C 56.1°F13.4°C 78% 0.9 mph SW1.4 kmh SW 0.9 mph1.4 kmh 30.34 in1027.4 mb - 0.00 in0.0 mm 0.00 in0.0 mm
10:22 AM 63.7°F17.6°C 56.3°F13.5°C 77% 0.4 mph SSW0.6 kmh SSW 3.6 mph5.8 kmh 30.34 in1027.4 mb - 0.00 in0.0 mm 0.00 in0.0 mm
10:27 AM 64.2°F17.9°C 56.5°F13.6°C 76% 0.7 mph S1.1 kmh S 4.0 mph6.4 kmh 30.34 in1027.4 mb - 0.00 in0.0 mm 0.00 in0.0 mm
10:32 AM 64.6°F18.1°C 56.5°F13.6°C 75% Calm Calm -- 30.34 in1027.4 mb - 0.00 in0.0 mm 0.00 in0.0 mm
10:37 AM 65.3°F18.5°C 57.2°F14.0°C 75% Calm Calm -- 30.34 in1027.4 mb - 0.00 in0.0 mm 0.00 in0.0 mm
10:42 AM 66.2°F19.0°C 56.1°F13.4°C 70% 0.2 mph NNE0.3 kmh NNE 2.7 mph4.3 kmh 30.34 in1027.4 mb - 0.00 in0.0 mm 0.00 in0.0 mm
10:47 AM 66.7°F19.3°C 55.8°F13.2°C 68% Calm Calm -- 30.34 in1027.4 mb - 0.00 in0.0 mm 0.00 in0.0 mm
10:52 AM 67.1°F19.5°C 56.1°F13.4°C 68% 4.5 mph NE7.2 kmh NE 13.2 mph21.2 kmh 30.34 in1027.4 mb - 0.00 in0.0 mm 0.00 in0.0 mm
10:57 AM 67.3°F19.6°C 55.6°F13.1°C 66% 7.4 mph ENE11.9 kmh ENE 12.5 mph20.1 kmh 30.34 in1027.4 mb - 0.00 in0.0 mm 0.00 in0.0 mm
11:02 AM 67.5°F19.7°C 55.2°F12.9°C 65% 6.9 mph NE11.1 kmh NE 10.7 mph17.2 kmh 30.34 in1027.4 mb - 0.00 in0.0 mm 0.00 in0.0 mm
11:07 AM 67.8°F19.9°C 55.6°F13.1°C 65% 6.9 mph ENE11.1 kmh ENE 12.8 mph20.6 kmh 30.34 in1027.4 mb - 0.00 in0.0 mm 0.00 in0.0 mm
11:12 AM 68.0°F20.0°C 54.9°F12.7°C 63% 6.7 mph N10.8 kmh N 13.0 mph20.9 kmh 30.34 in1027.4 mb - 0.00 in0.0 mm 0.00 in0.0 mm
11:17 AM 68.2°F20.1°C 54.7°F12.6°C 62% 6.5 mph NE10.5 kmh NE 12.5 mph20.1 kmh 30.34 in1027.4 mb - 0.00 in0.0 mm 0.00 in0.0 mm
11:22 AM 68.2°F20.1°C 54.7°F12.6°C 62% 7.4 mph N11.9 kmh N 13.4 mph21.6 kmh 30.34 in1027.4 mb - 0.00 in0.0 mm 0.00 in0.0 mm
11:27 AM 68.2°F20.1°C 54.7°F12.6°C 62% 8.1 mph NE13.0 kmh NE 12.1 mph19.5 kmh 30.31 in1026.4 mb - 0.00 in0.0 mm 0.00 in0.0 mm
11:32 AM 68.4°F20.2°C 54.3°F12.4°C 61% 8.1 mph NNE13.0 kmh NNE 13.4 mph21.6 kmh 30.31 in1026.4 mb - 0.00 in0.0 mm 0.00 in0.0 mm
11:37 AM 68.7°F20.4°C 56.1°F13.4°C 64% 7.8 mph NNE12.6 kmh NNE 12.1 mph19.5 kmh 30.31 in1026.4 mb - 0.00 in0.0 mm 0.00 in0.0 mm
11:42 AM 69.1°F20.6°C 55.9°F13.3°C 63% 8.1 mph NNE13.0 kmh NNE 12.5 mph20.1 kmh 30.34 in1027.4 mb - 0.00 in0.0 mm 0.00 in0.0 mm
11:47 AM 69.3°F20.7°C 55.8°F13.2°C 62% 8.5 mph NNE13.7 kmh NNE 15.2 mph24.5 kmh 30.34 in1027.4 mb - 0.00 in0.0 mm 0.00 in0.0 mm
11:52 AM 69.3°F20.7°C 56.1°F13.4°C 63% 6.7 mph NNE10.8 kmh NNE 13.0 mph20.9 kmh 30.34 in1027.4 mb - 0.00 in0.0 mm 0.00 in0.0 mm
11:57 AM 68.9°F20.5°C 55.8°F13.2°C 63% 8.9 mph N14.3 kmh N 16.1 mph25.9 kmh 30.31 in1026.4 mb - 0.00 in0.0 mm 0.00 in0.0 mm
12:02 PM 69.1°F20.6°C 56.5°F13.6°C 64% 10.7 mph N17.2 kmh N 19.5 mph31.4 kmh 30.31 in1026.4 mb - 0.00 in0.0 mm 0.00 in0.0 mm
12:07 PM 69.1°F20.6°C 56.5°F13.6°C 64% 9.6 mph N15.4 kmh N 16.8 mph27.0 kmh 30.31 in1026.4 mb - 0.00 in0.0 mm 0.00 in0.0 mm
12:12 PM 69.4°F20.8°C 55.9°F13.3°C 62% 11.2 mph NNE18.0 kmh NNE 17.0 mph27.4 kmh 30.31 in1026.4 mb - 0.00 in0.0 mm 0.00 in0.0 mm
12:17 PM 70.0°F21.1°C 55.9°F13.3°C 61% 9.8 mph NNE15.8 kmh NNE 15.9 mph25.6 kmh 30.31 in1026.4 mb - 0.00 in0.0 mm 0.00 in0.0 mm
12:22 PM 70.2°F21.2°C 56.1°F13.4°C 61% 8.9 mph ENE14.3 kmh ENE 14.3 mph23.0 kmh 30.31 in1026.4 mb - 0.00 in0.0 mm 0.00 in0.0 mm
12:27 PM 70.5°F21.4°C 56.5°F13.6°C 61% 6.7 mph N10.8 kmh N 11.0 mph17.7 kmh 30.31 in1026.4 mb - 0.00 in0.0 mm 0.00 in0.0 mm
12:32 PM 70.3°F21.3°C 56.3°F13.5°C 61% 9.2 mph NE14.8 kmh NE 15.9 mph25.6 kmh 30.31 in1026.4 mb - 0.00 in0.0 mm 0.00 in0.0 mm
12:37 PM 69.8°F21.0°C 55.8°F13.2°C 61% 8.7 mph NE14.0 kmh NE 8.7 mph14.0 kmh 30.31 in1026.4 mb - 0.00 in0.0 mm 0.00 in0.0 mm
12:42 PM 70.2°F21.2°C 56.5°F13.6°C 62% 10.3 mph ENE16.6 kmh ENE 18.1 mph29.1 kmh 30.31 in1026.4 mb - 0.00 in0.0 mm 0.00 in0.0 mm
12:47 PM 70.2°F21.2°C 56.5°F13.6°C 62% 9.8 mph ENE15.8 kmh ENE 15.7 mph25.3 kmh 30.31 in1026.4 mb - 0.00 in0.0 mm 0.00 in0.0 mm
12:52 PM 70.3°F21.3°C 56.7°F13.7°C 62% 9.2 mph NNE14.8 kmh NNE 17.4 mph28.0 kmh 30.31 in1026.4 mb - 0.00 in0.0 mm 0.00 in0.0 mm
12:57 PM 70.7°F21.5°C 57.0°F13.9°C 62% 10.1 mph N16.3 kmh N 15.7 mph25.3 kmh 30.31 in1026.4 mb - 0.00 in0.0 mm 0.00 in0.0 mm
01:02 PM 70.7°F21.5°C 57.0°F13.9°C 62% 8.3 mph N13.4 kmh N 14.8 mph23.8 kmh 30.31 in1026.4 mb - 0.00 in0.0 mm 0.00 in0.0 mm
01:07 PM 70.7°F21.5°C 56.7°F13.7°C 61% 8.3 mph ENE13.4 kmh ENE 13.0 mph20.9 kmh 30.31 in1026.4 mb - 0.00 in0.0 mm 0.00 in0.0 mm
01:12 PM 70.3°F21.3°C 56.7°F13.7°C 62% 8.7 mph NE14.0 kmh NE 15.9 mph25.6 kmh 30.28 in1025.4 mb - 0.00 in0.0 mm 0.00 in0.0 mm
01:17 PM 70.5°F21.4°C 56.8°F13.8°C 62% 9.8 mph NE15.8 kmh NE 17.9 mph28.8 kmh 30.28 in1025.4 mb - 0.00 in0.0 mm 0.00 in0.0 mm
01:22 PM 70.5°F21.4°C 56.8°F13.8°C 62% 10.1 mph ENE16.3 kmh ENE 15.4 mph24.8 kmh 30.28 in1025.4 mb - 0.00 in0.0 mm 0.00 in0.0 mm
01:27 PM 70.5°F21.4°C 56.5°F13.6°C 61% 9.6 mph ENE15.4 kmh ENE 16.6 mph26.7 kmh 30.28 in1025.4 mb - 0.00 in0.0 mm 0.00 in0.0 mm
01:32 PM 70.7°F21.5°C 57.0°F13.9°C 62% 9.8 mph NNE15.8 kmh NNE 17.7 mph28.5 kmh 30.28 in1025.4 mb - 0.00 in0.0 mm 0.00 in0.0 mm
01:37 PM 70.9°F21.6°C 56.8°F13.8°C 61% 11.0 mph NE17.7 kmh NE 16.6 mph26.7 kmh 30.28 in1025.4 mb - 0.00 in0.0 mm 0.00 in0.0 mm
01:42 PM 70.7°F21.5°C 56.7°F13.7°C 61% 9.2 mph NNE14.8 kmh NNE 15.7 mph25.3 kmh 30.28 in1025.4 mb - 0.00 in0.0 mm 0.00 in0.0 mm
01:47 PM 70.7°F21.5°C 56.7°F13.7°C 61% 9.8 mph NE15.8 kmh NE 9.8 mph15.8 kmh 30.28 in1025.4 mb - 0.00 in0.0 mm 0.00 in0.0 mm
01:52 PM 70.5°F21.4°C 56.5°F13.6°C 61% 10.1 mph NE16.3 kmh NE 17.4 mph28.0 kmh 30.28 in1025.4 mb - 0.00 in0.0 mm 0.00 in0.0 mm
01:57 PM 70.5°F21.4°C 56.5°F13.6°C 61% 10.7 mph NE17.2 kmh NE 19.2 mph30.9 kmh 30.25 in1024.4 mb - 0.00 in0.0 mm 0.00 in0.0 mm
02:02 PM 70.5°F21.4°C 56.5°F13.6°C 61% 10.1 mph NE16.3 kmh NE 17.0 mph27.4 kmh 30.25 in1024.4 mb - 0.00 in0.0 mm 0.00 in0.0 mm
02:07 PM 70.7°F21.5°C 57.0°F13.9°C 62% 9.6 mph NE15.4 kmh NE 16.3 mph26.2 kmh 30.25 in1024.4 mb - 0.00 in0.0 mm 0.00 in0.0 mm
02:12 PM 70.7°F21.5°C 57.0°F13.9°C 62% 10.3 mph NE16.6 kmh NE 18.3 mph29.5 kmh 30.25 in1024.4 mb - 0.00 in0.0 mm 0.00 in0.0 mm
02:17 PM 70.5°F21.4°C 56.8°F13.8°C 62% 8.9 mph NE14.3 kmh NE 15.9 mph25.6 kmh 30.25 in1024.4 mb - 0.00 in0.0 mm 0.00 in0.0 mm
02:22 PM 70.7°F21.5°C 57.0°F13.9°C 62% 10.3 mph E16.6 kmh E 17.0 mph27.4 kmh 30.25 in1024.4 mb - 0.00 in0.0 mm 0.00 in0.0 mm
02:27 PM 70.3°F21.3°C 56.7°F13.7°C 62% 8.3 mph NNE13.4 kmh NNE 13.9 mph22.4 kmh 30.28 in1025.4 mb - 0.00 in0.0 mm 0.00 in0.0 mm
02:32 PM 70.2°F21.2°C 56.5°F13.6°C 62% 10.7 mph NE17.2 kmh NE 19.7 mph31.7 kmh 30.28 in1025.4 mb - 0.00 in0.0 mm 0.00 in0.0 mm
02:37 PM 70.2°F21.2°C 57.0°F13.9°C 63% 10.5 mph NNE16.9 kmh NNE 16.8 mph27.0 kmh 30.28 in1025.4 mb - 0.00 in0.0 mm 0.00 in0.0 mm
02:42 PM 69.6°F20.9°C 56.8°F13.8°C 64% 11.0 mph N17.7 kmh N 17.2 mph27.7 kmh 30.25 in1024.4 mb - 0.00 in0.0 mm 0.00 in0.0 mm
02:47 PM 69.6°F20.9°C 56.8°F13.8°C 64% 12.1 mph NE19.5 kmh NE 17.4 mph28.0 kmh 30.25 in1024.4 mb - 0.00 in0.0 mm 0.00 in0.0 mm
02:52 PM 69.6°F20.9°C 56.8°F13.8°C 64% 10.3 mph NE16.6 kmh NE 16.3 mph26.2 kmh 30.25 in1024.4 mb - 0.00 in0.0 mm 0.00 in0.0 mm
02:57 PM 69.4°F20.8°C 56.7°F13.7°C 64% 9.8 mph ENE15.8 kmh ENE 20.1 mph32.3 kmh 30.25 in1024.4 mb - 0.00 in0.0 mm 0.00 in0.0 mm
03:02 PM 69.6°F20.9°C 56.8°F13.8°C 64% 11.4 mph ENE18.3 kmh ENE 19.0 mph30.6 kmh 30.25 in1024.4 mb - 0.00 in0.0 mm 0.00 in0.0 mm
03:07 PM 69.6°F20.9°C 56.8°F13.8°C 64% 9.2 mph NE14.8 kmh NE 14.5 mph23.3 kmh 30.25 in1024.4 mb - 0.00 in0.0 mm 0.00 in0.0 mm
03:12 PM 69.4°F20.8°C 57.2°F14.0°C 65% 10.5 mph E16.9 kmh E 17.7 mph28.5 kmh 30.28 in1025.4 mb - 0.00 in0.0 mm 0.00 in0.0 mm
03:17 PM 69.4°F20.8°C 57.2°F14.0°C 65% 9.6 mph NE15.4 kmh NE 16.3 mph26.2 kmh 30.28 in1025.4 mb - 0.00 in0.0 mm 0.00 in0.0 mm
03:22 PM 69.6°F20.9°C 57.4°F14.1°C 65% 10.1 mph NE16.3 kmh NE 17.4 mph28.0 kmh 30.28 in1025.4 mb - 0.00 in0.0 mm 0.00 in0.0 mm
03:27 PM 69.4°F20.8°C 57.2°F14.0°C 65% 8.5 mph E13.7 kmh E 14.3 mph23.0 kmh 30.25 in1024.4 mb - 0.00 in0.0 mm 0.00 in0.0 mm
03:32 PM 69.3°F20.7°C 57.0°F13.9°C 65% 9.4 mph NNE15.1 kmh NNE 16.1 mph25.9 kmh 30.25 in1024.4 mb - 0.00 in0.0 mm 0.00 in0.0 mm
03:37 PM 69.1°F20.6°C 56.8°F13.8°C 65% 9.6 mph NE15.4 kmh NE 15.0 mph24.1 kmh 30.25 in1024.4 mb - 0.00 in0.0 mm 0.00 in0.0 mm
03:42 PM 69.1°F20.6°C 57.2°F14.0°C 66% 9.6 mph NE15.4 kmh NE 9.6 mph15.4 kmh 30.28 in1025.4 mb - 0.00 in0.0 mm 0.00 in0.0 mm
03:47 PM 69.1°F20.6°C 57.2°F14.0°C 66% 11.0 mph NE17.7 kmh NE 17.7 mph28.5 kmh 30.28 in1025.4 mb - 0.00 in0.0 mm 0.00 in0.0 mm
03:52 PM 68.9°F20.5°C 57.0°F13.9°C 66% 8.7 mph NE14.0 kmh NE 14.5 mph23.3 kmh 30.28 in1025.4 mb - 0.00 in0.0 mm 0.00 in0.0 mm
03:57 PM 68.5°F20.3°C 57.2°F14.0°C 67% 8.5 mph NE13.7 kmh NE 14.8 mph23.8 kmh 30.28 in1025.4 mb - 0.00 in0.0 mm 0.00 in0.0 mm
04:02 PM 68.4°F20.2°C 57.0°F13.9°C 67% 9.4 mph ENE15.1 kmh ENE 18.6 mph29.9 kmh 30.28 in1025.4 mb - 0.00 in0.0 mm 0.00 in0.0 mm
04:07 PM 68.0°F20.0°C 57.0°F13.9°C 68% 8.7 mph N14.0 kmh N 17.4 mph28.0 kmh 30.28 in1025.4 mb - 0.00 in0.0 mm 0.00 in0.0 mm
04:12 PM 68.0°F20.0°C 57.0°F13.9°C 68% 9.6 mph ENE15.4 kmh ENE 15.4 mph24.8 kmh 30.25 in1024.4 mb - 0.00 in0.0 mm 0.00 in0.0 mm
04:17 PM 67.6°F19.8°C 57.6°F14.2°C 70% 8.5 mph NE13.7 kmh NE 17.7 mph28.5 kmh 30.25 in1024.4 mb - 0.00 in0.0 mm 0.00 in0.0 mm
04:22 PM 67.5°F19.7°C 57.7°F14.3°C 71% 8.9 mph ENE14.3 kmh ENE 16.8 mph27.0 kmh 30.25 in1024.4 mb - 0.00 in0.0 mm 0.00 in0.0 mm
04:27 PM 67.5°F19.7°C 57.7°F14.3°C 71% 8.9 mph NE14.3 kmh NE 16.6 mph26.7 kmh 30.28 in1025.4 mb - 0.00 in0.0 mm 0.00 in0.0 mm
04:32 PM 67.3°F19.6°C 57.9°F14.4°C 72% 8.1 mph NE13.0 kmh NE 13.0 mph20.9 kmh 30.28 in1025.4 mb - 0.00 in0.0 mm 0.00 in0.0 mm
04:37 PM 67.1°F19.5°C 57.7°F14.3°C 72% 9.4 mph ENE15.1 kmh ENE 15.9 mph25.6 kmh 30.28 in1025.4 mb - 0.00 in0.0 mm 0.00 in0.0 mm
04:42 PM 66.9°F19.4°C 57.6°F14.2°C 72% 8.3 mph NE13.4 kmh NE 14.3 mph23.0 kmh 30.25 in1024.4 mb - 0.00 in0.0 mm 0.00 in0.0 mm
04:47 PM 66.7°F19.3°C 57.7°F14.3°C 73% 6.7 mph NE10.8 kmh NE 13.0 mph20.9 kmh 30.25 in1024.4 mb - 0.00 in0.0 mm 0.00 in0.0 mm
04:52 PM 66.6°F19.2°C 57.6°F14.2°C 73% 8.1 mph ENE13.0 kmh ENE 12.8 mph20.6 kmh 30.25 in1024.4 mb - 0.00 in0.0 mm 0.00 in0.0 mm
04:57 PM 66.2°F19.0°C 57.7°F14.3°C 74% 6.0 mph NE9.7 kmh NE 10.3 mph16.6 kmh 30.25 in1024.4 mb - 0.00 in0.0 mm 0.00 in0.0 mm
05:02 PM 66.2°F19.0°C 57.7°F14.3°C 74% 8.3 mph ENE13.4 kmh ENE 11.6 mph18.7 kmh 30.25 in1024.4 mb - 0.00 in0.0 mm 0.00 in0.0 mm
05:07 PM 66.0°F18.9°C 58.3°F14.6°C 76% 7.6 mph NE12.2 kmh NE 12.5 mph20.1 kmh 30.25 in1024.4 mb - 0.00 in0.0 mm 0.00 in0.0 mm
05:12 PM 65.8°F18.8°C 58.1°F14.5°C 76% 7.6 mph NE12.2 kmh NE 12.1 mph19.5 kmh 30.25 in1024.4 mb - 0.00 in0.0 mm 0.00 in0.0 mm
05:17 PM 65.7°F18.7°C 58.3°F14.6°C 77% 6.7 mph ENE10.8 kmh ENE 11.6 mph18.7 kmh 30.25 in1024.4 mb - 0.00 in0.0 mm 0.00 in0.0 mm
05:22 PM 65.5°F18.6°C 58.1°F14.5°C 77% 6.9 mph E11.1 kmh E 12.8 mph20.6 kmh 30.25 in1024.4 mb - 0.00 in0.0 mm 0.00 in0.0 mm
05:27 PM 65.3°F18.5°C 58.3°F14.6°C 78% 8.5 mph NE13.7 kmh NE 8.5 mph13.7 kmh 30.28 in1025.4 mb - 0.00 in0.0 mm 0.00 in0.0 mm
05:32 PM 65.3°F18.5°C 58.3°F14.6°C 78% 7.6 mph NE12.2 kmh NE 12.3 mph19.8 kmh 30.28 in1025.4 mb - 0.00 in0.0 mm 0.00 in0.0 mm
05:37 PM 65.1°F18.4°C 58.1°F14.5°C 78% 6.5 mph NE10.5 kmh NE 11.2 mph18.0 kmh 30.28 in1025.4 mb - 0.00 in0.0 mm 0.00 in0.0 mm
05:42 PM 64.9°F18.3°C 58.3°F14.6°C 79% 6.5 mph NNE10.5 kmh NNE 11.0 mph17.7 kmh 30.28 in1025.4 mb - 0.00 in0.0 mm 0.00 in0.0 mm
05:47 PM 64.9°F18.3°C 58.3°F14.6°C 79% 7.8 mph ENE12.6 kmh ENE 13.6 mph21.9 kmh 30.28 in1025.4 mb - 0.00 in0.0 mm 0.00 in0.0 mm
05:52 PM 64.8°F18.2°C 58.5°F14.7°C 80% 7.6 mph NE12.2 kmh NE 12.5 mph20.1 kmh 30.28 in1025.4 mb - 0.00 in0.0 mm 0.00 in0.0 mm
05:57 PM 64.8°F18.2°C 58.5°F14.7°C 80% 8.3 mph ENE13.4 kmh ENE 13.0 mph20.9 kmh 30.25 in1024.4 mb - 0.00 in0.0 mm 0.00 in0.0 mm
06:02 PM 64.8°F18.2°C 58.5°F14.7°C 80% 6.5 mph ENE10.5 kmh ENE 11.9 mph19.2 kmh 30.25 in1024.4 mb - 0.00 in0.0 mm 0.00 in0.0 mm
06:07 PM 64.8°F18.2°C 58.5°F14.7°C 80% 5.8 mph ENE9.3 kmh ENE 10.1 mph16.3 kmh 30.25 in1024.4 mb - 0.00 in0.0 mm 0.00 in0.0 mm
06:12 PM 64.6°F18.1°C 58.6°F14.8°C 81% 6.9 mph NE11.1 kmh NE 12.5 mph20.1 kmh 30.25 in1024.4 mb - 0.00 in0.0 mm 0.00 in0.0 mm
06:17 PM 64.8°F18.2°C 58.8°F14.9°C 81% 7.4 mph NE11.9 kmh NE 11.4 mph18.3 kmh 30.25 in1024.4 mb - 0.00 in0.0 mm 0.00 in0.0 mm
06:22 PM 64.6°F18.1°C 58.6°F14.8°C 81% 6.5 mph NE10.5 kmh NE 9.4 mph15.1 kmh 30.25 in1024.4 mb - 0.00 in0.0 mm 0.00 in0.0 mm
06:27 PM 64.6°F18.1°C 58.6°F14.8°C 81% 6.5 mph NE10.5 kmh NE 12.8 mph20.6 kmh 30.28 in1025.4 mb - 0.00 in0.0 mm 0.00 in0.0 mm
06:32 PM 64.6°F18.1°C 58.6°F14.8°C 81% 7.6 mph NE12.2 kmh NE 13.2 mph21.2 kmh 30.28 in1025.4 mb - 0.00 in0.0 mm 0.00 in0.0 mm
06:37 PM 64.6°F18.1°C 59.0°F15.0°C 82% 6.9 mph NE11.1 kmh NE 10.5 mph16.9 kmh 30.28 in1025.4 mb - 0.00 in0.0 mm 0.00 in0.0 mm
06:42 PM 64.6°F18.1°C 59.0°F15.0°C 82% 7.4 mph E11.9 kmh E 11.2 mph18.0 kmh 30.28 in1025.4 mb - 0.00 in0.0 mm 0.00 in0.0 mm
06:47 PM 64.4°F18.0°C 58.8°F14.9°C 82% 7.2 mph NE11.6 kmh NE 12.1 mph19.5 kmh 30.28 in1025.4 mb - 0.00 in0.0 mm 0.00 in0.0 mm
06:52 PM 64.4°F18.0°C 58.8°F14.9°C 82% 7.4 mph NE11.9 kmh NE 7.4 mph11.9 kmh 30.28 in1025.4 mb - 0.00 in0.0 mm 0.00 in0.0 mm
06:57 PM 64.4°F18.0°C 58.8°F14.9°C 82% 5.8 mph NE9.3 kmh NE 9.6 mph15.4 kmh 30.28 in1025.4 mb - 0.00 in0.0 mm 0.00 in0.0 mm
07:02 PM 64.4°F18.0°C 59.2°F15.1°C 83% 5.1 mph NE8.2 kmh NE 11.2 mph18.0 kmh 30.28 in1025.4 mb - 0.00 in0.0 mm 0.00 in0.0 mm
07:07 PM 64.4°F18.0°C 59.2°F15.1°C 83% 6.7 mph ENE10.8 kmh ENE 10.1 mph16.3 kmh 30.28 in1025.4 mb - 0.00 in0.0 mm 0.00 in0.0 mm
07:12 PM 64.4°F18.0°C 59.2°F15.1°C 83% 6.3 mph ENE10.1 kmh ENE 10.7 mph17.2 kmh 30.28 in1025.4 mb - 0.00 in0.0 mm 0.00 in0.0 mm
07:17 PM 64.2°F17.9°C 59.4°F15.2°C 84% 6.3 mph E10.1 kmh E 9.8 mph15.8 kmh 30.28 in1025.4 mb - 0.00 in0.0 mm 0.00 in0.0 mm
07:22 PM 64.2°F17.9°C 59.4°F15.2°C 84% 5.6 mph NE9.0 kmh NE 11.4 mph18.3 kmh 30.28 in1025.4 mb - 0.00 in0.0 mm 0.00 in0.0 mm
07:27 PM 64.2°F17.9°C 59.4°F15.2°C 84% 6.5 mph NE10.5 kmh NE 12.1 mph19.5 kmh 30.31 in1026.4 mb - 0.00 in0.0 mm 0.00 in0.0 mm
07:32 PM 64.0°F17.8°C 59.2°F15.1°C 84% 5.4 mph NNE8.7 kmh NNE 10.7 mph17.2 kmh 30.31 in1026.4 mb - 0.00 in0.0 mm 0.00 in0.0 mm
07:37 PM 64.0°F17.8°C 59.2°F15.1°C 84% 6.5 mph NE10.5 kmh NE 10.5 mph16.9 kmh 30.31 in1026.4 mb - 0.00 in0.0 mm 0.00 in0.0 mm
07:42 PM 64.0°F17.8°C 59.2°F15.1°C 84% 6.5 mph ENE10.5 kmh ENE 11.0 mph17.7 kmh 30.31 in1026.4 mb - 0.00 in0.0 mm 0.00 in0.0 mm
07:47 PM 64.0°F17.8°C 59.2°F15.1°C 84% 5.8 mph NE9.3 kmh NE 10.7 mph17.2 kmh 30.31 in1026.4 mb - 0.00 in0.0 mm 0.00 in0.0 mm
07:52 PM 64.0°F17.8°C 59.2°F15.1°C 84% 6.9 mph E11.1 kmh E 11.6 mph18.7 kmh 30.31 in1026.4 mb - 0.00 in0.0 mm 0.00 in0.0 mm
07:57 PM 64.0°F17.8°C 59.4°F15.2°C 85% 7.4 mph NE11.9 kmh NE 13.6 mph21.9 kmh 30.31 in1026.4 mb - 0.00 in0.0 mm 0.00 in0.0 mm
08:02 PM 63.9°F17.7°C 59.0°F15.0°C 84% 6.5 mph ENE10.5 kmh ENE 13.2 mph21.2 kmh 30.31 in1026.4 mb - 0.00 in0.0 mm 0.00 in0.0 mm
08:07 PM 63.9°F17.7°C 59.0°F15.0°C 84% 6.9 mph NE11.1 kmh NE 11.2 mph18.0 kmh 30.31 in1026.4 mb - 0.00 in0.0 mm 0.00 in0.0 mm
08:12 PM 63.7°F17.6°C 59.0°F15.0°C 85% 5.8 mph ENE9.3 kmh ENE 10.7 mph17.2 kmh 30.28 in1025.4 mb - 0.00 in0.0 mm 0.00 in0.0 mm
08:17 PM 63.7°F17.6°C 59.0°F15.0°C 85% 6.0 mph NE9.7 kmh NE 6.0 mph9.7 kmh 30.28 in1025.4 mb - 0.00 in0.0 mm 0.00 in0.0 mm
08:22 PM 63.7°F17.6°C 59.0°F15.0°C 85% 5.4 mph ENE8.7 kmh ENE 8.3 mph13.4 kmh 30.28 in1025.4 mb - 0.00 in0.0 mm 0.00 in0.0 mm
08:27 PM 63.5°F17.5°C 59.0°F15.0°C 85% 4.9 mph N7.9 kmh N 8.7 mph14.0 kmh 30.28 in1025.4 mb - 0.00 in0.0 mm 0.00 in0.0 mm
08:32 PM 63.5°F17.5°C 59.2°F15.1°C 86% 4.7 mph NNE7.6 kmh NNE 8.5 mph13.7 kmh 30.28 in1025.4 mb - 0.00 in0.0 mm 0.00 in0.0 mm
08:37 PM 63.5°F17.5°C 59.2°F15.1°C 86% 4.7 mph E7.6 kmh E 7.6 mph12.2 kmh 30.28 in1025.4 mb - 0.00 in0.0 mm 0.00 in0.0 mm
08:42 PM 63.5°F17.5°C 59.2°F15.1°C 86% 6.3 mph NE10.1 kmh NE 11.6 mph18.7 kmh 30.28 in1025.4 mb - 0.00 in0.0 mm 0.00 in0.0 mm
08:47 PM 63.5°F17.5°C 59.2°F15.1°C 86% 6.0 mph NE9.7 kmh NE 11.9 mph19.2 kmh 30.28 in1025.4 mb - 0.00 in0.0 mm 0.00 in0.0 mm
08:52 PM 63.5°F17.5°C 59.5°F15.3°C 87% 5.8 mph NE9.3 kmh NE 9.4 mph15.1 kmh 30.28 in1025.4 mb - 0.00 in0.0 mm 0.00 in0.0 mm
08:57 PM 63.5°F17.5°C 59.5°F15.3°C 87% 6.0 mph NE9.7 kmh NE 11.0 mph17.7 kmh 30.31 in1026.4 mb - 0.00 in0.0 mm 0.00 in0.0 mm
09:02 PM 63.5°F17.5°C 59.5°F15.3°C 87% 5.1 mph ENE8.2 kmh ENE 12.1 mph19.5 kmh 30.31 in1026.4 mb - 0.00 in0.0 mm 0.00 in0.0 mm
09:07 PM 63.3°F17.4°C 59.4°F15.2°C 87% 6.5 mph NE10.5 kmh NE 11.4 mph18.3 kmh 30.31 in1026.4 mb - 0.00 in0.0 mm 0.00 in0.0 mm
09:12 PM 63.5°F17.5°C 59.5°F15.3°C 87% 5.4 mph ENE8.7 kmh ENE 10.3 mph16.6 kmh 30.28 in1025.4 mb - 0.00 in0.0 mm 0.00 in0.0 mm
09:17 PM 63.3°F17.4°C 59.4°F15.2°C 87% 5.6 mph NNE9.0 kmh NNE 10.1 mph16.3 kmh 30.28 in1025.4 mb - 0.00 in0.0 mm 0.00 in0.0 mm
09:22 PM 63.3°F17.4°C 59.4°F15.2°C 87% 5.8 mph NE9.3 kmh NE 10.7 mph17.2 kmh 30.28 in1025.4 mb - 0.00 in0.0 mm 0.00 in0.0 mm
09:27 PM 63.3°F17.4°C 59.4°F15.2°C 87% 5.4 mph NE8.7 kmh NE 9.2 mph14.8 kmh 30.31 in1026.4 mb - 0.00 in0.0 mm 0.00 in0.0 mm
09:32 PM 63.3°F17.4°C 59.7°F15.4°C 88% 4.9 mph NNE7.9 kmh NNE 10.3 mph16.6 kmh 30.31 in1026.4 mb - 0.00 in0.0 mm 0.00 in0.0 mm
09:37 PM 63.3°F17.4°C 59.7°F15.4°C 88% 5.1 mph E8.2 kmh E 8.9 mph14.3 kmh 30.31 in1026.4 mb - 0.00 in0.0 mm 0.00 in0.0 mm
09:42 PM 63.3°F17.4°C 59.7°F15.4°C 88% 6.5 mph NNE10.5 kmh NNE 10.1 mph16.3 kmh 30.28 in1025.4 mb - 0.00 in0.0 mm 0.00 in0.0 mm
09:47 PM 63.3°F17.4°C 59.7°F15.4°C 88% 6.0 mph NNE9.7 kmh NNE 9.6 mph15.4 kmh 30.28 in1025.4 mb - 0.00 in0.0 mm 0.00 in0.0 mm
09:52 PM 63.3°F17.4°C 59.7°F15.4°C 88% 5.8 mph NNE9.3 kmh NNE 5.8 mph9.3 kmh 30.28 in1025.4 mb - 0.00 in0.0 mm 0.00 in0.0 mm
09:57 PM 63.5°F17.5°C 59.9°F15.5°C 88% 6.0 mph NNE9.7 kmh NNE 6.0 mph9.7 kmh 30.31 in1026.4 mb - 0.00 in0.0 mm 0.00 in0.0 mm
10:02 PM 63.5°F17.5°C 59.9°F15.5°C 88% 5.8 mph NE9.3 kmh NE 9.4 mph15.1 kmh 30.31 in1026.4 mb - 0.00 in0.0 mm 0.00 in0.0 mm
10:07 PM 63.5°F17.5°C 60.3°F15.7°C 89% 7.2 mph NE11.6 kmh NE 10.7 mph17.2 kmh 30.31 in1026.4 mb - 0.00 in0.0 mm 0.00 in0.0 mm
10:12 PM 63.5°F17.5°C 59.9°F15.5°C 88% 5.6 mph NE9.0 kmh NE 10.1 mph16.3 kmh 30.31 in1026.4 mb - 0.00 in0.0 mm 0.00 in0.0 mm
10:17 PM 63.7°F17.6°C 60.1°F15.6°C 88% 6.0 mph ENE9.7 kmh ENE 12.3 mph19.8 kmh 30.31 in1026.4 mb - 0.00 in0.0 mm 0.00 in0.0 mm
10:22 PM 63.7°F17.6°C 60.1°F15.6°C 88% 6.9 mph N11.1 kmh N 11.4 mph18.3 kmh 30.31 in1026.4 mb - 0.00 in0.0 mm 0.00 in0.0 mm
10:27 PM 63.7°F17.6°C 60.1°F15.6°C 88% 7.4 mph NNE11.9 kmh NNE 10.5 mph16.9 kmh 30.31 in1026.4 mb - 0.00 in0.0 mm 0.00 in0.0 mm
10:32 PM 63.7°F17.6°C 60.4°F15.8°C 89% 6.5 mph NE10.5 kmh NE 9.8 mph15.8 kmh 30.31 in1026.4 mb - 0.00 in0.0 mm 0.00 in0.0 mm
10:37 PM 63.7°F17.6°C 60.4°F15.8°C 89% 6.3 mph N10.1 kmh N 11.0 mph17.7 kmh 30.31 in1026.4 mb - 0.00 in0.0 mm 0.00 in0.0 mm
10:42 PM 63.7°F17.6°C 60.4°F15.8°C 89% 6.0 mph NE9.7 kmh NE 10.7 mph17.2 kmh 30.28 in1025.4 mb - 0.00 in0.0 mm 0.00 in0.0 mm
10:47 PM 63.9°F17.7°C 60.6°F15.9°C 89% 5.8 mph NE9.3 kmh NE 5.8 mph9.3 kmh 30.28 in1025.4 mb - 0.00 in0.0 mm 0.00 in0.0 mm
10:52 PM 63.9°F17.7°C 60.6°F15.9°C 89% 5.8 mph NE9.3 kmh NE 10.1 mph16.3 kmh 30.28 in1025.4 mb - 0.00 in0.0 mm 0.00 in0.0 mm
10:57 PM 63.9°F17.7°C 60.6°F15.9°C 89% 5.6 mph NE9.0 kmh NE 11.6 mph18.7 kmh 30.31 in1026.4 mb - 0.00 in0.0 mm 0.00 in0.0 mm
11:02 PM 64.0°F17.8°C 60.4°F15.8°C 88% 4.9 mph NE7.9 kmh NE 9.4 mph15.1 kmh 30.31 in1026.4 mb - 0.00 in0.0 mm 0.00 in0.0 mm
11:07 PM 64.0°F17.8°C 60.8°F16.0°C 89% 6.3 mph NE10.1 kmh NE 9.6 mph15.4 kmh 30.31 in1026.4 mb - 0.00 in0.0 mm 0.00 in0.0 mm
11:12 PM 64.0°F17.8°C 60.4°F15.8°C 88% 5.1 mph E8.2 kmh E 5.1 mph8.2 kmh 30.31 in1026.4 mb - 0.00 in0.0 mm 0.00 in0.0 mm
11:17 PM 64.0°F17.8°C 60.4°F15.8°C 88% 4.3 mph NNE6.9 kmh NNE 7.2 mph11.6 kmh 30.31 in1026.4 mb - 0.00 in0.0 mm 0.00 in0.0 mm
11:22 PM 64.0°F17.8°C 60.4°F15.8°C 88% 6.0 mph NE9.7 kmh NE 10.3 mph16.6 kmh 30.31 in1026.4 mb - 0.00 in0.0 mm 0.00 in0.0 mm
11:27 PM 63.9°F17.7°C 60.6°F15.9°C 89% 6.3 mph NNE10.1 kmh NNE 11.4 mph18.3 kmh 30.31 in1026.4 mb - 0.00 in0.0 mm 0.00 in0.0 mm
11:32 PM 63.9°F17.7°C 60.6°F15.9°C 89% 5.8 mph NNE9.3 kmh NNE 10.1 mph16.3 kmh 30.31 in1026.4 mb - 0.00 in0.0 mm 0.00 in0.0 mm
11:37 PM 63.7°F17.6°C 60.6°F15.9°C 90% 6.5 mph NNE10.5 kmh NNE 10.7 mph17.2 kmh 30.31 in1026.4 mb - 0.00 in0.0 mm 0.00 in0.0 mm
11:42 PM 63.7°F17.6°C 60.6°F15.9°C 90% 6.9 mph NNE11.1 kmh NNE 9.6 mph15.4 kmh 30.31 in1026.4 mb - 0.00 in0.0 mm 0.00 in0.0 mm
11:47 PM 63.7°F17.6°C 60.6°F15.9°C 90% 7.2 mph NE11.6 kmh NE 10.7 mph17.2 kmh 30.31 in1026.4 mb - 0.00 in0.0 mm 0.00 in0.0 mm
11:52 PM 63.7°F17.6°C 60.6°F15.9°C 90% 6.0 mph NNE9.7 kmh NNE 8.5 mph13.7 kmh 30.31 in1026.4 mb - 0.00 in0.0 mm 0.00 in0.0 mm
11:57 PM 63.5°F17.5°C 60.4°F15.8°C 90% 6.0 mph N9.7 kmh N 6.0 mph9.7 kmh 30.31 in1026.4 mb - 0.00 in0.0 mm 0.00 in0.0 mm